createdAt,value
2023-02-02T00:00:07.682Z,0.00
2023-02-02T00:01:07.626Z,0.00
2023-02-02T00:02:07.616Z,0.00
2023-02-02T00:03:07.644Z,0.00
2023-02-02T00:04:07.603Z,0.00
2023-02-02T00:05:07.586Z,0.00
2023-02-02T00:06:07.539Z,0.00
2023-02-02T00:07:07.543Z,0.00
2023-02-02T00:08:07.504Z,0.00
2023-02-02T00:09:07.486Z,0.00
2023-02-02T00:10:07.494Z,0.00
2023-02-02T00:11:07.447Z,0.00
2023-02-02T00:12:07.429Z,0.00
2023-02-02T00:13:07.411Z,0.00
2023-02-02T00:14:07.394Z,0.00
2023-02-02T00:15:07.409Z,0.00
2023-02-02T00:16:07.415Z,0.00
2023-02-02T00:17:07.339Z,0.00
2023-02-02T00:18:07.320Z,0.00
2023-02-02T00:19:07.303Z,0.00
2023-02-02T00:20:07.309Z,0.00
2023-02-02T00:21:07.261Z,0.00
2023-02-02T00:22:07.247Z,0.00
2023-02-02T00:23:07.230Z,0.00
2023-02-02T00:24:07.218Z,0.00
2023-02-02T00:25:07.222Z,0.00
2023-02-02T00:26:07.176Z,0.00
2023-02-02T00:27:07.155Z,0.00
2023-02-02T00:28:07.136Z,0.00
2023-02-02T00:29:07.121Z,0.00
2023-02-02T00:30:07.138Z,0.00
2023-02-02T00:31:07.107Z,0.00
2023-02-02T00:32:07.070Z,0.00
2023-02-02T00:33:07.052Z,0.00
2023-02-02T00:34:07.027Z,0.00
2023-02-02T00:35:07.043Z,0.00
2023-02-02T00:36:06.994Z,0.00
2023-02-02T00:37:06.978Z,0.00
2023-02-02T00:38:06.965Z,0.00
2023-02-02T00:39:06.954Z,0.00
2023-02-02T00:40:06.952Z,0.00
2023-02-02T00:41:06.908Z,0.00
2023-02-02T00:42:06.891Z,0.00
2023-02-02T00:43:06.873Z,0.00
2023-02-02T00:44:06.855Z,0.00
2023-02-02T00:45:06.866Z,0.00
2023-02-02T00:46:06.877Z,0.00
2023-02-02T00:47:07.801Z,0.00
2023-02-02T00:48:06.779Z,0.00
2023-02-02T00:49:06.762Z,0.00
2023-02-02T00:50:06.781Z,0.00
2023-02-02T00:51:06.730Z,0.00
2023-02-02T00:52:06.710Z,0.00
2023-02-02T00:53:06.691Z,0.00
2023-02-02T00:54:06.688Z,0.00
2023-02-02T00:55:06.683Z,0.00
2023-02-02T00:56:06.641Z,0.00
2023-02-02T00:57:06.624Z,0.00
2023-02-02T00:58:06.601Z,0.00
2023-02-02T00:59:06.582Z,0.00
2023-02-02T01:00:06.594Z,0.00
2023-02-02T01:01:06.611Z,0.00
2023-02-02T01:02:06.620Z,0.00
2023-02-02T01:03:06.514Z,0.00
2023-02-02T01:04:06.495Z,0.00
2023-02-02T01:05:06.508Z,0.00
2023-02-02T01:06:06.465Z,0.00
2023-02-02T01:07:06.445Z,0.00
2023-02-02T01:08:06.427Z,0.00
2023-02-02T01:09:06.423Z,0.00
2023-02-02T01:10:06.429Z,0.00
2023-02-02T01:11:06.370Z,0.00
2023-02-02T01:12:06.357Z,0.00
2023-02-02T01:13:06.344Z,0.00
2023-02-02T01:14:06.325Z,0.00
2023-02-02T01:15:06.330Z,0.00
2023-02-02T01:16:06.309Z,0.00
2023-02-02T01:17:06.270Z,0.00
2023-02-02T01:18:06.252Z,0.00
2023-02-02T01:19:06.237Z,0.00
2023-02-02T01:20:06.243Z,0.00
2023-02-02T01:21:06.201Z,0.00
2023-02-02T01:22:06.178Z,0.00
2023-02-02T01:23:06.164Z,0.00
2023-02-02T01:24:06.144Z,0.00
2023-02-02T01:25:06.150Z,0.00
2023-02-02T01:26:06.107Z,0.00
2023-02-02T01:27:06.088Z,0.00
2023-02-02T01:28:06.093Z,0.00
2023-02-02T01:29:06.051Z,0.00
2023-02-02T01:30:06.060Z,0.00
2023-02-02T01:31:06.026Z,0.00
2023-02-02T01:32:06.044Z,0.00
2023-02-02T01:33:05.984Z,0.00
2023-02-02T01:34:05.969Z,0.00
2023-02-02T01:35:05.965Z,0.00
2023-02-02T01:36:05.941Z,0.00
2023-02-02T01:37:05.904Z,0.00
2023-02-02T01:38:05.892Z,0.00
2023-02-02T01:39:05.877Z,0.00
2023-02-02T01:40:05.878Z,0.00
2023-02-02T01:41:05.843Z,0.00
2023-02-02T01:42:05.808Z,0.00
2023-02-02T01:43:05.819Z,0.00
2023-02-02T01:44:05.775Z,0.00
2023-02-02T01:45:05.802Z,0.00
2023-02-02T01:46:05.798Z,0.00
2023-02-02T01:47:05.716Z,0.00
2023-02-02T01:48:05.700Z,0.00
2023-02-02T01:49:05.687Z,0.00
2023-02-02T01:50:05.667Z,0.00
2023-02-02T01:51:05.671Z,0.00
2023-02-02T01:52:05.627Z,0.00
2023-02-02T01:53:05.608Z,0.00
2023-02-02T01:54:05.590Z,0.00
2023-02-02T01:55:05.579Z,0.00
2023-02-02T01:56:05.599Z,0.00
2023-02-02T01:57:05.538Z,0.00
2023-02-02T01:58:05.517Z,0.00
2023-02-02T01:59:05.501Z,0.00
2023-02-02T02:00:05.483Z,0.00
2023-02-02T02:01:05.510Z,0.00
2023-02-02T02:02:05.482Z,0.00
2023-02-02T02:03:05.430Z,0.00
2023-02-02T02:04:05.409Z,0.00
2023-02-02T02:05:05.387Z,0.00
2023-02-02T02:06:05.415Z,0.00
2023-02-02T02:07:05.392Z,0.00
2023-02-02T02:08:05.334Z,0.00
2023-02-02T02:09:05.325Z,0.00
2023-02-02T02:10:05.301Z,0.00
2023-02-02T02:11:05.285Z,0.00
2023-02-02T02:12:05.293Z,0.00
2023-02-02T02:13:05.247Z,0.00
2023-02-02T02:14:05.219Z,0.00
2023-02-02T02:15:05.205Z,0.00
2023-02-02T02:16:05.220Z,0.00
2023-02-02T02:17:05.201Z,0.00
2023-02-02T02:18:05.153Z,0.00
2023-02-02T02:19:05.131Z,0.00
2023-02-02T02:20:05.124Z,0.00
2023-02-02T02:21:05.115Z,0.00
2023-02-02T02:22:06.088Z,0.00
2023-02-02T02:23:05.065Z,0.00
2023-02-02T02:24:05.039Z,0.00
2023-02-02T02:25:06.023Z,0.00
2023-02-02T02:26:05.047Z,0.00
2023-02-02T02:27:04.990Z,0.00
2023-02-02T02:28:04.968Z,0.00
2023-02-02T02:29:04.952Z,0.00
2023-02-02T02:30:04.935Z,0.00
2023-02-02T02:31:05.033Z,0.00
2023-02-02T02:32:04.896Z,0.00
2023-02-02T02:33:04.879Z,0.00
2023-02-02T02:34:04.867Z,0.00
2023-02-02T02:35:04.849Z,0.00
2023-02-02T02:36:04.856Z,0.00
2023-02-02T02:37:04.810Z,0.00
2023-02-02T02:38:04.806Z,0.00
2023-02-02T02:39:04.778Z,0.00
2023-02-02T02:40:04.754Z,0.00
2023-02-02T02:41:04.802Z,0.00
2023-02-02T02:42:04.719Z,0.00
2023-02-02T02:43:04.702Z,0.00
2023-02-02T02:44:04.682Z,0.00
2023-02-02T02:45:04.668Z,0.00
2023-02-02T02:46:04.720Z,0.00
2023-02-02T02:47:04.624Z,0.00
2023-02-02T02:48:04.611Z,0.00
2023-02-02T02:49:04.589Z,0.00
2023-02-02T02:50:04.573Z,0.00
2023-02-02T02:51:04.580Z,0.00
2023-02-02T02:52:04.536Z,0.00
2023-02-02T02:53:04.519Z,0.00
2023-02-02T02:54:04.501Z,0.00
2023-02-02T02:55:04.484Z,0.00
2023-02-02T02:56:04.496Z,0.00
2023-02-02T02:57:04.450Z,0.00
2023-02-02T02:58:04.462Z,0.00
2023-02-02T02:59:04.413Z,0.00
2023-02-02T03:00:04.417Z,0.00
2023-02-02T03:01:04.410Z,0.00
2023-02-02T03:02:04.371Z,0.00
2023-02-02T03:03:04.342Z,0.00
2023-02-02T03:04:04.321Z,0.00
2023-02-02T03:05:04.301Z,0.00
2023-02-02T03:06:04.313Z,0.00
2023-02-02T03:07:04.269Z,0.00
2023-02-02T03:08:04.244Z,0.00
2023-02-02T03:09:04.230Z,0.00
2023-02-02T03:10:04.210Z,0.00
2023-02-02T03:11:04.221Z,0.00
2023-02-02T03:12:04.175Z,0.00
2023-02-02T03:13:04.153Z,0.00
2023-02-02T03:14:04.135Z,0.00
2023-02-02T03:15:04.121Z,0.00
2023-02-02T03:16:04.160Z,0.00
2023-02-02T03:17:04.082Z,0.00
2023-02-02T03:18:04.072Z,0.00
2023-02-02T03:19:04.047Z,0.00
2023-02-02T03:20:04.032Z,0.00
2023-02-02T03:21:04.043Z,0.00
2023-02-02T03:22:03.991Z,0.00
2023-02-02T03:23:03.983Z,0.00
2023-02-02T03:24:03.952Z,0.00
2023-02-02T03:25:03.946Z,0.00
2023-02-02T03:26:03.945Z,0.00
2023-02-02T03:27:03.897Z,0.00
2023-02-02T03:28:03.897Z,0.00
2023-02-02T03:29:03.867Z,0.00
2023-02-02T03:30:03.848Z,0.00
2023-02-02T03:31:03.940Z,0.00
2023-02-02T03:32:03.818Z,0.00
2023-02-02T03:33:03.790Z,0.00
2023-02-02T03:34:03.782Z,0.00
2023-02-02T03:35:03.749Z,0.00
2023-02-02T03:36:03.758Z,0.00
2023-02-02T03:37:03.719Z,0.00
2023-02-02T03:38:03.692Z,0.00
2023-02-02T03:39:03.679Z,0.00
2023-02-02T03:40:03.662Z,0.00
2023-02-02T03:41:03.668Z,0.00
2023-02-02T03:42:03.630Z,0.00
2023-02-02T03:43:03.604Z,0.00
2023-02-02T03:44:03.580Z,0.00
2023-02-02T03:45:03.574Z,0.00
2023-02-02T03:46:03.625Z,0.00
2023-02-02T03:47:03.533Z,0.00
2023-02-02T03:48:03.515Z,0.00
2023-02-02T03:49:03.498Z,0.00
2023-02-02T03:50:03.476Z,0.00
2023-02-02T03:51:03.489Z,0.00
2023-02-02T03:52:03.442Z,0.00
2023-02-02T03:53:03.436Z,0.00
2023-02-02T03:54:03.409Z,0.00
2023-02-02T03:55:03.391Z,0.00
2023-02-02T03:56:03.398Z,0.00
2023-02-02T03:57:03.355Z,0.00
2023-02-02T03:58:03.332Z,0.00
2023-02-02T03:59:03.314Z,0.00
2023-02-02T04:00:03.298Z,0.00
2023-02-02T04:01:03.306Z,0.00
2023-02-02T04:02:03.264Z,0.00
2023-02-02T04:03:03.326Z,0.00
2023-02-02T04:04:03.231Z,0.00
2023-02-02T04:05:03.202Z,0.00
2023-02-02T04:06:03.220Z,0.00
2023-02-02T04:07:03.177Z,0.00
2023-02-02T04:08:03.147Z,0.00
2023-02-02T04:09:03.125Z,0.00
2023-02-02T04:10:03.129Z,0.00
2023-02-02T04:11:03.125Z,0.00
2023-02-02T04:12:03.076Z,0.00
2023-02-02T04:13:03.068Z,0.00
2023-02-02T04:14:03.039Z,0.00
2023-02-02T04:15:03.008Z,0.00
2023-02-02T04:16:03.079Z,0.00
2023-02-02T04:17:02.975Z,0.00
2023-02-02T04:18:02.961Z,0.00
2023-02-02T04:19:02.943Z,0.00
2023-02-02T04:20:02.928Z,0.00
2023-02-02T04:21:02.943Z,0.00
2023-02-02T04:22:02.886Z,0.00
2023-02-02T04:23:02.874Z,0.00
2023-02-02T04:24:02.852Z,0.00
2023-02-02T04:25:02.845Z,0.00
2023-02-02T04:26:02.850Z,0.00
2023-02-02T04:27:02.797Z,0.00
2023-02-02T04:28:02.775Z,0.00
2023-02-02T04:29:02.755Z,0.00
2023-02-02T04:30:02.770Z,0.00
2023-02-02T04:31:02.795Z,0.00
2023-02-02T04:32:02.711Z,0.00
2023-02-02T04:33:02.687Z,0.00
2023-02-02T04:34:02.670Z,0.00
2023-02-02T04:35:02.649Z,0.00
2023-02-02T04:36:02.638Z,0.00
2023-02-02T04:37:02.644Z,0.00
2023-02-02T04:38:02.591Z,0.00
2023-02-02T04:39:02.573Z,0.00
2023-02-02T04:40:02.626Z,0.00
2023-02-02T04:41:02.539Z,0.00
2023-02-02T04:42:02.548Z,0.00
2023-02-02T04:43:02.502Z,0.00
2023-02-02T04:44:02.484Z,0.00
2023-02-02T04:45:02.497Z,0.00
2023-02-02T04:46:02.484Z,0.00
2023-02-02T04:47:02.463Z,0.00
2023-02-02T04:48:02.413Z,0.00
2023-02-02T04:49:02.396Z,0.00
2023-02-02T04:50:02.369Z,0.00
2023-02-02T04:51:02.363Z,0.00
2023-02-02T04:52:02.363Z,0.00
2023-02-02T04:53:02.323Z,0.00
2023-02-02T04:54:02.303Z,0.00
2023-02-02T04:55:02.280Z,0.00
2023-02-02T04:56:02.264Z,0.00
2023-02-02T04:57:02.272Z,0.00
2023-02-02T04:58:02.228Z,0.00
2023-02-02T04:59:02.209Z,0.00
2023-02-02T05:00:02.197Z,0.00
2023-02-02T05:01:02.231Z,0.00
2023-02-02T05:02:02.180Z,0.00
2023-02-02T05:03:02.148Z,0.00
2023-02-02T05:04:02.130Z,0.00
2023-02-02T05:05:02.097Z,0.00
2023-02-02T05:06:02.080Z,0.00
2023-02-02T05:07:02.089Z,0.00
2023-02-02T05:08:02.042Z,0.00
2023-02-02T05:09:02.032Z,0.00
2023-02-02T05:10:02.027Z,0.00
2023-02-02T05:11:01.991Z,0.00
2023-02-02T05:12:02.001Z,0.00
2023-02-02T05:13:01.952Z,0.00
2023-02-02T05:14:01.933Z,0.00
2023-02-02T05:15:01.935Z,0.00
2023-02-02T05:16:01.893Z,0.00
2023-02-02T05:17:01.956Z,0.00
2023-02-02T05:18:01.856Z,0.00
2023-02-02T05:19:01.850Z,0.00
2023-02-02T05:20:01.832Z,0.00
2023-02-02T05:21:01.803Z,0.00
2023-02-02T05:22:01.819Z,0.00
2023-02-02T05:23:01.770Z,0.00
2023-02-02T05:24:01.751Z,0.00
2023-02-02T05:25:01.732Z,0.00
2023-02-02T05:26:01.715Z,0.00
2023-02-02T05:27:01.738Z,0.00
2023-02-02T05:28:01.678Z,0.00
2023-02-02T05:29:01.663Z,0.00
2023-02-02T05:30:01.636Z,0.00
2023-02-02T05:31:01.661Z,0.00
2023-02-02T05:32:01.726Z,0.00
2023-02-02T05:33:01.594Z,0.00
2023-02-02T05:34:01.589Z,0.00
2023-02-02T05:35:01.562Z,0.00
2023-02-02T05:36:01.555Z,0.00
2023-02-02T05:37:01.557Z,0.00
2023-02-02T05:38:01.496Z,0.00
2023-02-02T05:39:01.479Z,0.00
2023-02-02T05:40:01.461Z,0.00
2023-02-02T05:41:01.446Z,0.00
2023-02-02T05:42:01.455Z,0.00
2023-02-02T05:43:01.411Z,0.00
2023-02-02T05:44:01.391Z,0.00
2023-02-02T05:45:01.376Z,0.00
2023-02-02T05:46:01.398Z,0.00
2023-02-02T05:47:01.367Z,0.00
2023-02-02T05:48:01.319Z,0.00
2023-02-02T05:49:01.303Z,0.00
2023-02-02T05:50:01.306Z,0.00
2023-02-02T05:51:01.274Z,0.00
2023-02-02T05:52:01.279Z,0.00
2023-02-02T05:53:01.230Z,0.00
2023-02-02T05:54:01.264Z,0.00
2023-02-02T05:55:01.188Z,0.00
2023-02-02T05:56:01.178Z,0.00
2023-02-02T05:57:01.196Z,0.00
2023-02-02T05:58:01.141Z,0.00
2023-02-02T05:59:01.120Z,0.00
2023-02-02T06:00:01.117Z,0.00
2023-02-02T06:01:01.097Z,0.00
2023-02-02T06:02:01.100Z,0.00
2023-02-02T06:03:01.086Z,0.00
2023-02-02T06:04:01.093Z,0.00
2023-02-02T06:05:01.011Z,0.00
2023-02-02T06:06:00.993Z,0.00
2023-02-02T06:07:01.002Z,0.00
2023-02-02T06:08:00.957Z,0.00
2023-02-02T06:09:00.936Z,0.00
2023-02-02T06:10:00.925Z,0.00
2023-02-02T06:11:00.899Z,0.00
2023-02-02T06:12:00.909Z,0.00
2023-02-02T06:13:00.862Z,0.00
2023-02-02T06:14:00.852Z,0.00
2023-02-02T06:15:00.824Z,0.00
2023-02-02T06:16:00.837Z,0.00
2023-02-02T06:17:00.821Z,0.00
2023-02-02T06:18:00.775Z,0.00
2023-02-02T06:19:00.768Z,0.00
2023-02-02T06:20:00.729Z,0.00
2023-02-02T06:21:00.735Z,0.00
2023-02-02T06:22:00.723Z,0.00
2023-02-02T06:23:00.673Z,0.00
2023-02-02T06:24:00.657Z,0.00
2023-02-02T06:25:00.642Z,0.00
2023-02-02T06:26:00.618Z,0.00
2023-02-02T06:27:00.635Z,0.00
2023-02-02T06:28:00.592Z,0.00
2023-02-02T06:29:00.562Z,0.00
2023-02-02T06:30:00.548Z,0.00
2023-02-02T06:31:00.643Z,0.00
2023-02-02T06:32:00.632Z,0.00
2023-02-02T06:33:00.496Z,0.00
2023-02-02T06:34:00.486Z,0.00
2023-02-02T06:35:00.457Z,0.00
2023-02-02T06:36:00.435Z,0.00
2023-02-02T06:37:00.448Z,0.00
2023-02-02T06:38:00.402Z,0.00
2023-02-02T06:39:00.404Z,0.00
2023-02-02T06:40:00.363Z,4.00
2023-02-02T06:41:00.386Z,4.00
2023-02-02T06:42:08.840Z,0.00
2023-02-02T06:43:02.307Z,0.00
2023-02-02T06:44:00.302Z,0.00
2023-02-02T06:45:00.272Z,0.00
2023-02-02T06:46:00.318Z,4.00
2023-02-02T06:47:00.270Z,4.00
2023-02-02T06:48:00.218Z,4.00
2023-02-02T06:49:00.196Z,4.00
2023-02-02T06:50:00.213Z,8.00
2023-02-02T06:51:00.168Z,4.00
2023-02-02T06:52:00.175Z,4.00
2023-02-02T06:53:00.124Z,8.00
2023-02-02T06:54:00.119Z,8.00
2023-02-02T06:55:00.107Z,8.00
2023-02-02T06:56:00.094Z,12.00
2023-02-02T06:57:00.101Z,12.00
2023-02-02T06:58:00.037Z,12.00
2023-02-02T06:59:00.022Z,16.00
2023-02-02T07:00:00.010Z,16.00
2023-02-02T07:00:59.982Z,20.00
2023-02-02T07:01:59.997Z,24.00
2023-02-02T07:03:00.003Z,28.00
2023-02-02T07:03:59.929Z,24.00
2023-02-02T07:04:59.905Z,24.00
2023-02-02T07:05:59.881Z,28.00
2023-02-02T07:06:59.903Z,24.00
2023-02-02T07:07:59.850Z,28.00
2023-02-02T07:09:03.075Z,32.00
2023-02-02T07:10:00.812Z,28.00
2023-02-02T07:11:15.605Z,32.00
2023-02-02T07:12:00.821Z,36.00
2023-02-02T07:12:59.756Z,36.00
2023-02-02T07:13:59.736Z,40.00
2023-02-02T07:14:59.727Z,52.00
2023-02-02T07:15:59.726Z,56.00
2023-02-02T07:16:59.709Z,64.00
2023-02-02T07:17:59.703Z,64.00
2023-02-02T07:18:59.640Z,72.00
2023-02-02T07:19:59.636Z,80.00
2023-02-02T07:20:59.607Z,84.00
2023-02-02T07:21:59.585Z,80.00
2023-02-02T07:22:59.598Z,80.00
2023-02-02T07:23:59.547Z,80.00
2023-02-02T07:24:59.531Z,80.00
2023-02-02T07:25:59.512Z,84.00
2023-02-02T07:26:59.502Z,92.00
2023-02-02T07:27:59.581Z,96.00
2023-02-02T07:28:59.458Z,100.00
2023-02-02T07:29:59.458Z,112.00
2023-02-02T07:30:59.472Z,120.00
2023-02-02T07:31:59.444Z,132.00
2023-02-02T07:32:59.419Z,140.00
2023-02-02T07:33:59.405Z,144.00
2023-02-02T07:34:59.348Z,140.00
2023-02-02T07:35:59.337Z,140.00
2023-02-02T07:36:59.315Z,152.00
2023-02-02T07:37:59.326Z,152.00
2023-02-02T07:38:59.281Z,148.00
2023-02-02T07:39:59.265Z,148.00
2023-02-02T07:40:59.240Z,148.00
2023-02-02T07:41:59.223Z,152.00
2023-02-02T07:42:59.237Z,172.00
2023-02-02T07:43:59.277Z,180.00
2023-02-02T07:44:59.164Z,180.00
2023-02-02T07:45:59.145Z,196.00
2023-02-02T07:46:59.159Z,220.00
2023-02-02T07:47:59.163Z,236.00
2023-02-02T07:48:59.093Z,252.00
2023-02-02T07:49:59.077Z,288.00
2023-02-02T07:50:59.044Z,284.00
2023-02-02T07:52:00.043Z,312.00
2023-02-02T07:52:59.054Z,344.00
2023-02-02T07:53:58.999Z,364.00
2023-02-02T07:55:13.556Z,372.00
2023-02-02T07:56:00.965Z,388.00
2023-02-02T07:56:58.943Z,404.00
2023-02-02T07:57:59.006Z,412.00
2023-02-02T07:58:58.923Z,436.00
2023-02-02T07:59:58.889Z,424.00
2023-02-02T08:00:58.911Z,400.00
2023-02-02T08:01:58.883Z,380.00
2023-02-02T08:02:58.884Z,384.00
2023-02-02T08:03:58.817Z,420.00
2023-02-02T08:04:58.789Z,456.00
2023-02-02T08:05:58.774Z,488.00
2023-02-02T08:06:58.755Z,512.00
2023-02-02T08:07:58.769Z,532.00
2023-02-02T08:08:58.727Z,560.00
2023-02-02T08:09:58.696Z,600.00
2023-02-02T08:10:58.682Z,668.00
2023-02-02T08:11:58.689Z,760.00
2023-02-02T08:12:58.677Z,820.00
2023-02-02T08:13:58.626Z,880.00
2023-02-02T08:14:58.603Z,904.00
2023-02-02T08:15:58.599Z,816.00
2023-02-02T08:16:58.569Z,688.00
2023-02-02T08:17:58.575Z,604.00
2023-02-02T08:18:58.534Z,572.00
2023-02-02T08:19:58.511Z,552.00
2023-02-02T08:20:58.490Z,516.00
2023-02-02T08:21:58.473Z,520.00
2023-02-02T08:22:58.482Z,552.00
2023-02-02T08:23:58.430Z,560.00
2023-02-02T08:24:59.427Z,532.00
2023-02-02T08:25:58.398Z,520.00
2023-02-02T08:26:58.424Z,524.00
2023-02-02T08:27:58.397Z,540.00
2023-02-02T08:28:58.346Z,556.00
2023-02-02T08:29:58.330Z,572.00
2023-02-02T08:30:58.363Z,592.00
2023-02-02T08:31:58.321Z,640.00
2023-02-02T08:32:59.302Z,664.00
2023-02-02T08:33:58.254Z,692.00
2023-02-02T08:34:58.241Z,740.00
2023-02-02T08:35:58.214Z,800.00
2023-02-02T08:36:58.199Z,844.00
2023-02-02T08:37:58.209Z,880.00
2023-02-02T08:38:58.170Z,900.00
2023-02-02T08:39:58.173Z,944.00
2023-02-02T08:40:58.124Z,1016.00
2023-02-02T08:41:58.116Z,1116.00
2023-02-02T08:42:58.112Z,1208.00
2023-02-02T08:43:58.079Z,1280.00
2023-02-02T08:46:03.434Z,1356.00
2023-02-02T08:46:13.026Z,1316.00
2023-02-02T08:46:59.074Z,1384.00
2023-02-02T08:48:10.864Z,1388.00
2023-02-02T08:48:59.980Z,1384.00
2023-02-02T08:49:57.973Z,1400.00
2023-02-02T08:50:57.946Z,1444.00
2023-02-02T08:51:57.927Z,1448.00
2023-02-02T08:52:57.936Z,1436.00
2023-02-02T08:53:57.895Z,1468.00
2023-02-02T08:54:57.868Z,1504.00
2023-02-02T08:55:57.847Z,1516.00
2023-02-02T08:56:57.834Z,1540.00
2023-02-02T08:57:57.843Z,1580.00
2023-02-02T08:58:57.802Z,1616.00
2023-02-02T08:59:57.774Z,1656.00
2023-02-02T09:00:57.775Z,1716.00
2023-02-02T09:01:57.774Z,1792.00
2023-02-02T09:02:57.751Z,1848.00
2023-02-02T09:03:57.705Z,1872.00
2023-02-02T09:04:57.677Z,1908.00
2023-02-02T09:05:57.668Z,1960.00
2023-02-02T09:06:57.650Z,2092.00
2023-02-02T09:07:57.657Z,2252.00
2023-02-02T09:08:57.639Z,2380.00
2023-02-02T09:09:57.592Z,2432.00
2023-02-02T09:10:57.570Z,2472.00
2023-02-02T09:11:57.560Z,2504.00
2023-02-02T09:12:57.565Z,2496.00
2023-02-02T09:13:57.512Z,2508.00
2023-02-02T09:14:57.500Z,2584.00
2023-02-02T09:15:57.483Z,2668.00
2023-02-02T09:16:57.514Z,2752.00
2023-02-02T09:17:57.469Z,2848.00
2023-02-02T09:18:57.418Z,2884.00
2023-02-02T09:19:57.400Z,2892.00
2023-02-02T09:20:57.385Z,2872.00
2023-02-02T09:21:57.358Z,2864.00
2023-02-02T09:22:57.378Z,2920.00
2023-02-02T09:23:57.323Z,2996.00
2023-02-02T09:24:57.309Z,3044.00
2023-02-02T09:25:57.283Z,3036.00
2023-02-02T09:26:57.356Z,3020.00
2023-02-02T09:27:57.285Z,2992.00
2023-02-02T09:28:57.231Z,2940.00
2023-02-02T09:29:57.209Z,2884.00
2023-02-02T09:30:57.238Z,2852.00
2023-02-02T09:31:57.248Z,2876.00
2023-02-02T09:32:57.206Z,2920.00
2023-02-02T09:33:57.132Z,2968.00
2023-02-02T09:34:57.116Z,3016.00
2023-02-02T09:35:57.099Z,3056.00
2023-02-02T09:36:57.080Z,3132.00
2023-02-02T09:37:57.096Z,3228.00
2023-02-02T09:38:57.044Z,3308.00
2023-02-02T09:39:57.025Z,3332.00
2023-02-02T09:40:57.004Z,3316.00
2023-02-02T09:41:56.987Z,3324.00
2023-02-02T09:42:57.004Z,3372.00
2023-02-02T09:43:56.953Z,3456.00
2023-02-02T09:44:56.942Z,3528.00
2023-02-02T09:45:56.974Z,3552.00
2023-02-02T09:46:56.899Z,3520.00
2023-02-02T09:47:56.910Z,3456.00
2023-02-02T09:48:56.858Z,3412.00
2023-02-02T09:49:56.841Z,3452.00
2023-02-02T09:50:56.834Z,3588.00
2023-02-02T09:51:56.872Z,3760.00
2023-02-02T09:52:56.818Z,3928.00
2023-02-02T09:53:56.774Z,4028.00
2023-02-02T09:54:56.759Z,4080.00
2023-02-02T09:55:56.739Z,4084.00
2023-02-02T09:56:56.713Z,4064.00
2023-02-02T09:57:56.806Z,4012.00
2023-02-02T09:58:58.824Z,3948.00
2023-02-02T09:59:57.686Z,3884.00
2023-02-02T10:00:56.702Z,3780.00
2023-02-02T10:01:56.626Z,3716.00
2023-02-02T10:02:56.633Z,3740.00
2023-02-02T10:03:56.653Z,3780.00
2023-02-02T10:04:56.566Z,3784.00
2023-02-02T10:05:56.549Z,3796.00
2023-02-02T10:06:56.538Z,3844.00
2023-02-02T10:07:56.538Z,3940.00
2023-02-02T10:08:56.508Z,4056.00
2023-02-02T10:09:57.471Z,4148.00
2023-02-02T10:10:56.448Z,4192.00
2023-02-02T10:11:56.443Z,4200.00
2023-02-02T10:12:56.451Z,4220.00
2023-02-02T10:13:56.411Z,4224.00
2023-02-02T10:14:56.494Z,4200.00
2023-02-02T10:15:56.579Z,4132.00
2023-02-02T10:16:56.345Z,4124.00
2023-02-02T10:17:56.326Z,4168.00
2023-02-02T10:18:56.338Z,4240.00
2023-02-02T10:19:56.295Z,4256.00
2023-02-02T10:20:56.290Z,4348.00
2023-02-02T10:21:56.257Z,4476.00
2023-02-02T10:22:56.268Z,4652.00
2023-02-02T10:23:56.224Z,4764.00
2023-02-02T10:24:56.198Z,4868.00
2023-02-02T10:25:57.195Z,4896.00
2023-02-02T10:26:56.273Z,4796.00
2023-02-02T10:27:56.173Z,4740.00
2023-02-02T10:28:56.160Z,4688.00
2023-02-02T10:29:56.117Z,4692.00
2023-02-02T10:30:56.173Z,4712.00
2023-02-02T10:31:56.169Z,4720.00
2023-02-02T10:32:56.057Z,4784.00
2023-02-02T10:33:56.080Z,4860.00
2023-02-02T10:35:10.855Z,5000.00
2023-02-02T10:35:58.011Z,5044.00
2023-02-02T10:36:55.992Z,5032.00
2023-02-02T10:37:55.974Z,4968.00
2023-02-02T10:38:55.989Z,4884.00
2023-02-02T10:39:55.970Z,4896.00
2023-02-02T10:40:55.913Z,4956.00
2023-02-02T10:41:55.907Z,5036.00
2023-02-02T10:42:57.219Z,5168.00
2023-02-02T10:43:56.891Z,5360.00
2023-02-02T10:44:55.841Z,5608.00
2023-02-02T10:45:55.852Z,5820.00
2023-02-02T10:46:55.801Z,5960.00
2023-02-02T10:47:55.786Z,5980.00
2023-02-02T10:48:55.797Z,6048.00
2023-02-02T10:49:56.331Z,6060.00
2023-02-02T10:50:56.759Z,6064.00
2023-02-02T10:51:55.723Z,6004.00
2023-02-02T10:52:55.714Z,5984.00
2023-02-02T10:53:55.707Z,6176.00
2023-02-02T10:54:58.219Z,6476.00
2023-02-02T10:55:56.638Z,6620.00
2023-02-02T10:56:55.625Z,6652.00
2023-02-02T10:57:55.608Z,6692.00
2023-02-02T10:58:55.615Z,6748.00
2023-02-02T10:59:55.569Z,6808.00
2023-02-02T11:00:55.552Z,6920.00
2023-02-02T11:01:55.591Z,7020.00
2023-02-02T11:02:55.604Z,7072.00
2023-02-02T11:03:55.527Z,7080.00
2023-02-02T11:04:55.487Z,7012.00
2023-02-02T11:05:55.461Z,7000.00
2023-02-02T11:06:55.440Z,7052.00
2023-02-02T11:07:55.441Z,7068.00
2023-02-02T11:08:55.432Z,7048.00
2023-02-02T11:09:55.384Z,7052.00
2023-02-02T11:10:55.362Z,7160.00
2023-02-02T11:11:55.391Z,7200.00
2023-02-02T11:12:55.329Z,7196.00
2023-02-02T11:13:55.936Z,7268.00
2023-02-02T11:14:55.291Z,7360.00
2023-02-02T11:15:55.302Z,7436.00
2023-02-02T11:16:55.276Z,7560.00
2023-02-02T11:17:55.239Z,7684.00
2023-02-02T11:18:55.245Z,7792.00
2023-02-02T11:19:55.196Z,7888.00
2023-02-02T11:20:55.192Z,7940.00
2023-02-02T11:21:55.158Z,7968.00
2023-02-02T11:22:55.142Z,7920.00
2023-02-02T11:23:55.158Z,7884.00
2023-02-02T11:24:55.113Z,7848.00
2023-02-02T11:25:55.090Z,7844.00
2023-02-02T11:26:55.133Z,7764.00
2023-02-02T11:27:55.057Z,7716.00
2023-02-02T11:28:55.065Z,7800.00
2023-02-02T11:29:55.012Z,8032.00
2023-02-02T11:30:55.109Z,8316.00
2023-02-02T11:31:55.988Z,8580.00
2023-02-02T11:32:54.957Z,8720.00
2023-02-02T11:33:54.967Z,8812.00
2023-02-02T11:34:54.923Z,8768.00
2023-02-02T11:35:54.904Z,8636.00
2023-02-02T11:36:54.890Z,8476.00
2023-02-02T11:37:54.863Z,8392.00
2023-02-02T11:38:54.875Z,8324.00
2023-02-02T11:39:54.828Z,8152.00
2023-02-02T11:40:54.816Z,7880.00
2023-02-02T11:41:54.795Z,7720.00
2023-02-02T11:42:54.775Z,7768.00
2023-02-02T11:43:54.785Z,7780.00
2023-02-02T11:44:54.743Z,7772.00
2023-02-02T11:45:54.726Z,7740.00
2023-02-02T11:46:54.724Z,7628.00
2023-02-02T11:47:54.689Z,7388.00
2023-02-02T11:48:54.702Z,7112.00
2023-02-02T11:49:54.681Z,6908.00
2023-02-02T11:50:54.674Z,7000.00
2023-02-02T11:51:54.620Z,7152.00
2023-02-02T11:52:54.616Z,7580.00
2023-02-02T11:53:54.580Z,7964.00
2023-02-02T11:54:54.587Z,8160.00
2023-02-02T11:55:54.542Z,8148.00
2023-02-02T11:56:54.542Z,7988.00
2023-02-02T11:57:54.503Z,7968.00
2023-02-02T11:58:54.515Z,7928.00
2023-02-02T11:59:54.470Z,7856.00
2023-02-02T12:00:54.447Z,8044.00
2023-02-02T12:01:54.467Z,8396.00
2023-02-02T12:02:54.415Z,8644.00
2023-02-02T12:03:54.452Z,8740.00
2023-02-02T12:04:54.387Z,8760.00
2023-02-02T12:05:54.359Z,8620.00
2023-02-02T12:06:54.348Z,8432.00
2023-02-02T12:07:54.329Z,8284.00
2023-02-02T12:08:54.340Z,8196.00
2023-02-02T12:09:54.299Z,8212.00
2023-02-02T12:10:54.278Z,8264.00
2023-02-02T12:11:54.255Z,8248.00
2023-02-02T12:12:54.248Z,8220.00
2023-02-02T12:13:54.275Z,8088.00
2023-02-02T12:14:54.206Z,7920.00
2023-02-02T12:15:54.259Z,7740.00
2023-02-02T12:16:54.166Z,7608.00
2023-02-02T12:17:54.157Z,7356.00
2023-02-02T12:18:54.164Z,7156.00
2023-02-02T12:19:54.121Z,6960.00
2023-02-02T12:20:54.106Z,6768.00
2023-02-02T12:21:54.081Z,6676.00
2023-02-02T12:22:54.070Z,6692.00
2023-02-02T12:23:54.092Z,6812.00
2023-02-02T12:24:54.036Z,7020.00
2023-02-02T12:25:54.015Z,6964.00
2023-02-02T12:26:54.014Z,6884.00
2023-02-02T12:27:53.983Z,6812.00
2023-02-02T12:28:53.988Z,6904.00
2023-02-02T12:29:53.947Z,7056.00
2023-02-02T12:30:54.014Z,7324.00
2023-02-02T12:31:53.939Z,7652.00
2023-02-02T12:32:53.890Z,7860.00
2023-02-02T12:33:53.905Z,7860.00
2023-02-02T12:34:53.853Z,7856.00
2023-02-02T12:35:53.837Z,7976.00
2023-02-02T12:36:53.820Z,8108.00
2023-02-02T12:37:53.806Z,8324.00
2023-02-02T12:38:53.835Z,8344.00
2023-02-02T12:39:53.764Z,8224.00
2023-02-02T12:40:53.739Z,8296.00
2023-02-02T12:41:53.723Z,8676.00
2023-02-02T12:42:53.709Z,8896.00
2023-02-02T12:43:53.720Z,8664.00
2023-02-02T12:44:53.671Z,8476.00
2023-02-02T12:45:53.691Z,8624.00
2023-02-02T12:46:53.639Z,8816.00